createdAt,value
2019-05-07T00:00:22.081Z,100467.87
2019-05-07T00:01:19.815Z,100465.33
2019-05-07T00:02:07.181Z,100458.19
2019-05-07T00:02:42.868Z,100470.75
2019-05-07T00:03:18.459Z,100465.68
2019-05-07T00:03:53.890Z,100465.68
2019-05-07T00:04:29.654Z,100465.13
2019-05-07T00:05:05.694Z,100471.03
2019-05-07T00:05:42.795Z,100471.03
2019-05-07T00:06:18.693Z,100461.72
2019-05-07T00:06:54.156Z,100461.72
2019-05-07T00:07:29.598Z,100463.55
2019-05-07T00:08:05.734Z,100463.55
2019-05-07T00:08:44.654Z,100466.30
2019-05-07T00:09:18.302Z,100466.30
2019-05-07T00:09:54.193Z,100459.47
2019-05-07T00:10:29.933Z,100466.73
2019-05-07T00:11:05.457Z,100466.73
2019-05-07T00:11:42.605Z,100465.86
2019-05-07T00:12:18.277Z,100459.65
2019-05-07T00:12:53.784Z,100459.65
2019-05-07T00:13:29.508Z,100463.89
2019-05-07T00:14:05.561Z,100463.95
2019-05-07T00:14:42.925Z,100463.95
2019-05-07T00:15:18.522Z,100457.66
2019-05-07T00:15:54.016Z,100457.66
2019-05-07T00:16:29.467Z,100457.02
2019-05-07T00:17:04.917Z,100462.61
2019-05-07T00:17:40.366Z,100454.27
2019-05-07T00:18:15.911Z,100454.20
2019-05-07T00:18:52.570Z,100454.20
2019-05-07T00:19:28.344Z,100455.48
2019-05-07T00:20:03.807Z,100455.48
2019-05-07T00:20:39.238Z,100456.45
2019-05-07T00:21:15.245Z,100465.06
2019-05-07T00:21:52.828Z,100443.78
2019-05-07T00:22:29.341Z,100443.78
2019-05-07T00:23:04.824Z,100453.23
2019-05-07T00:23:40.385Z,100457.48
2019-05-07T00:24:15.930Z,100454.61
2019-05-07T00:24:52.192Z,100454.47
2019-05-07T00:25:27.864Z,100454.47
2019-05-07T00:26:03.873Z,100455.80
2019-05-07T00:26:39.740Z,100455.80
2019-05-07T00:27:15.815Z,100453.41
2019-05-07T00:27:52.340Z,100450.80
2019-05-07T00:28:28.420Z,100450.80
2019-05-07T00:29:04.502Z,100455.48
2019-05-07T00:29:39.967Z,100455.48
2019-05-07T00:30:15.985Z,100452.09
2019-05-07T00:30:52.122Z,100454.25
2019-05-07T00:31:27.693Z,100454.25
2019-05-07T00:32:03.157Z,100451.35
2019-05-07T00:32:39.265Z,100451.35
2019-05-07T00:33:15.520Z,100449.19
2019-05-07T00:33:52.595Z,100452.64
2019-05-07T00:34:34.267Z,100449.98
2019-05-07T00:35:13.080Z,100449.98
2019-05-07T00:36:13.016Z,100452.33
2019-05-07T00:37:12.939Z,100448.70
2019-05-07T00:37:52.451Z,100448.70
2019-05-07T00:38:31.842Z,100454.44
2019-05-07T00:39:23.931Z,100457.36
2019-05-07T00:40:06.739Z,100452.38
2019-05-07T00:41:02.825Z,100452.38
2019-05-07T00:41:49.278Z,100449.45
2019-05-07T00:42:42.771Z,100455.92
2019-05-07T00:43:22.687Z,100447.40
2019-05-07T00:43:58.807Z,100449.95
2019-05-07T00:44:35.891Z,100449.56
2019-05-07T00:45:23.771Z,100449.19
2019-05-07T00:46:13.324Z,100452.64
2019-05-07T00:46:48.878Z,100452.64
2019-05-07T00:47:24.328Z,100450.41
2019-05-07T00:47:59.754Z,100446.64
2019-05-07T00:48:35.230Z,100446.64
2019-05-07T00:49:12.667Z,100445.44
2019-05-07T00:49:48.712Z,100447.55
2019-05-07T00:50:28.850Z,100446.64
2019-05-07T00:51:22.606Z,100446.64
2019-05-07T00:51:58.169Z,100436.95
2019-05-07T00:52:33.708Z,100436.95
2019-05-07T00:53:09.148Z,100440.91
2019-05-07T00:53:44.708Z,100440.91
2019-05-07T00:54:20.221Z,100438.30
2019-05-07T00:54:56.033Z,100439.18
2019-05-07T00:55:32.565Z,100438.66
2019-05-07T00:56:08.114Z,100438.66
2019-05-07T00:56:44.031Z,100433.83
2019-05-07T00:57:19.671Z,100433.09
2019-05-07T00:57:55.119Z,100433.09
2019-05-07T00:58:32.119Z,100431.89
2019-05-07T00:59:08.246Z,100434.44
2019-05-07T00:59:43.721Z,100434.13
2019-05-07T01:00:19.357Z,100434.13
2019-05-07T01:00:55.430Z,100432.63
2019-05-07T01:01:32.385Z,100432.63
2019-05-07T01:02:07.951Z,100427.70
2019-05-07T01:02:43.479Z,100427.39
2019-05-07T01:03:19.015Z,100434.67
2019-05-07T01:03:54.595Z,100429.20
2019-05-07T01:04:30.464Z,100429.20
2019-05-07T01:05:06.147Z,100428.94
2019-05-07T01:05:43.180Z,100428.94
2019-05-07T01:06:19.174Z,100426.36
2019-05-07T01:06:54.625Z,100429.97
2019-05-07T01:07:32.329Z,100418.90
2019-05-07T01:08:07.936Z,100425.86
2019-05-07T01:08:43.397Z,100425.86
2019-05-07T01:09:19.222Z,100423.87
2019-05-07T01:09:54.753Z,100423.99
2019-05-07T01:10:32.823Z,100421.97
2019-05-07T01:11:07.736Z,100421.97
2019-05-07T01:11:43.331Z,100424.48
2019-05-07T01:12:19.181Z,100425.36
2019-05-07T01:12:54.622Z,100425.86
2019-05-07T01:13:32.223Z,100425.19
2019-05-07T01:14:07.389Z,100425.19
2019-05-07T01:14:42.967Z,100426.56
2019-05-07T01:15:28.752Z,100424.87
2019-05-07T01:15:55.665Z,100421.91
2019-05-07T01:16:32.982Z,100421.91
2019-05-07T01:17:08.331Z,100431.77
2019-05-07T01:17:43.865Z,100424.69
2019-05-07T01:18:19.471Z,100423.14
2019-05-07T01:18:54.915Z,100419.72
2019-05-07T01:19:32.887Z,100419.72
2019-05-07T01:20:07.874Z,100419.25
2019-05-07T01:20:44.196Z,100414.97
2019-05-07T01:21:22.708Z,100412.81
2019-05-07T01:21:57.832Z,100412.81
2019-05-07T01:22:33.284Z,100417.58
2019-05-07T01:23:08.745Z,100419.69
2019-05-07T01:23:44.317Z,100405.49
2019-05-07T01:24:20.105Z,100405.49
2019-05-07T01:24:55.653Z,100412.45
2019-05-07T01:25:32.878Z,100412.98
2019-05-07T01:26:08.643Z,100408.89
2019-05-07T01:26:44.198Z,100408.89
2019-05-07T01:27:22.434Z,100404.76
2019-05-07T01:27:58.256Z,100409.97
2019-05-07T01:28:52.936Z,100409.97
2019-05-07T01:29:28.383Z,100410.50
2019-05-07T01:30:04.111Z,100406.63
2019-05-07T01:30:39.595Z,100401.09
2019-05-07T01:31:15.107Z,100401.56
2019-05-07T01:31:56.550Z,100406.02
2019-05-07T01:32:50.540Z,100405.08
2019-05-07T01:33:52.872Z,100407.45
2019-05-07T01:34:47.251Z,100400.70
2019-05-07T01:35:45.203Z,100411.67
2019-05-07T01:36:22.629Z,100411.67
2019-05-07T01:36:59.325Z,100408.59
2019-05-07T01:37:35.183Z,100403.18
2019-05-07T01:38:12.315Z,100410.03
2019-05-07T01:38:48.095Z,100408.42
2019-05-07T01:39:23.586Z,100412.63
2019-05-07T01:39:59.031Z,100403.71
2019-05-07T01:40:35.039Z,100408.45
2019-05-07T01:41:12.500Z,100410.23
2019-05-07T01:41:47.918Z,100410.23
2019-05-07T01:42:23.386Z,100403.53
2019-05-07T01:42:58.910Z,100403.53
2019-05-07T01:43:34.897Z,100406.28
2019-05-07T01:44:12.710Z,100398.44
2019-05-07T01:44:47.919Z,100399.29
2019-05-07T01:45:24.855Z,100399.58
2019-05-07T01:46:02.966Z,100399.58
2019-05-07T01:46:37.941Z,100399.70
2019-05-07T01:47:14.059Z,100400.20
2019-05-07T01:47:49.734Z,100398.97
2019-05-07T01:48:25.185Z,100398.97
2019-05-07T01:49:02.936Z,100392.87
2019-05-07T01:49:38.013Z,100401.02
2019-05-07T01:50:14.283Z,100393.29
2019-05-07T01:50:49.844Z,100393.29
2019-05-07T01:51:25.338Z,100395.92
2019-05-07T01:52:02.498Z,100402.33
2019-05-07T01:52:38.055Z,100401.55
2019-05-07T01:53:14.019Z,100402.25
2019-05-07T01:53:49.562Z,100402.30
2019-05-07T01:54:25.132Z,100405.75
2019-05-07T01:55:03.007Z,100404.67
2019-05-07T01:55:38.419Z,100401.77
2019-05-07T01:56:14.227Z,100406.08
2019-05-07T01:56:51.655Z,100397.64
2019-05-07T01:57:27.323Z,100407.91
2019-05-07T01:58:04.857Z,100404.14
2019-05-07T01:58:42.332Z,100404.14
2019-05-07T01:59:17.568Z,100404.20
2019-05-07T01:59:53.410Z,100404.20
2019-05-07T02:00:28.960Z,100404.32
2019-05-07T02:01:04.427Z,100404.17
2019-05-07T02:01:42.725Z,100395.31
2019-05-07T02:02:23.467Z,100395.31
2019-05-07T02:03:05.729Z,100405.67
2019-05-07T02:03:53.866Z,100406.20
2019-05-07T02:04:48.294Z,100394.42
2019-05-07T02:05:42.856Z,100401.84
2019-05-07T02:06:24.356Z,100405.34
2019-05-07T02:07:15.692Z,100405.34
2019-05-07T02:07:55.225Z,100397.27
2019-05-07T02:08:44.933Z,100394.31
2019-05-07T02:09:29.632Z,100398.61
2019-05-07T02:10:11.953Z,100404.91
2019-05-07T02:11:06.380Z,100405.28
2019-05-07T02:11:44.052Z,100405.28
2019-05-07T02:12:38.330Z,100405.67
2019-05-07T02:13:14.267Z,100399.00
2019-05-07T02:13:49.748Z,100399.00
2019-05-07T02:14:25.532Z,100409.88
2019-05-07T02:15:02.711Z,100410.11
2019-05-07T02:15:38.385Z,100410.11
2019-05-07T02:16:14.512Z,100406.60
2019-05-07T02:16:50.020Z,100409.70
2019-05-07T02:17:25.475Z,100410.96
2019-05-07T02:18:02.036Z,100410.96
2019-05-07T02:18:37.643Z,100408.86
2019-05-07T02:19:14.429Z,100406.60
2019-05-07T02:19:50.315Z,100396.41
2019-05-07T02:20:25.788Z,100398.73
2019-05-07T02:21:03.211Z,100406.98
2019-05-07T02:21:38.767Z,100399.41
2019-05-07T02:22:14.817Z,100403.27
2019-05-07T02:22:50.351Z,100400.70
2019-05-07T02:23:25.844Z,100400.70
2019-05-07T02:24:03.325Z,100396.50
2019-05-07T02:24:38.930Z,100407.08
2019-05-07T02:25:14.878Z,100407.08
2019-05-07T02:25:52.677Z,100398.50
2019-05-07T02:26:28.187Z,100397.36
2019-05-07T02:27:03.669Z,100405.91
2019-05-07T02:27:39.143Z,100398.41
2019-05-07T02:28:14.712Z,100398.34
2019-05-07T02:28:51.862Z,100405.52
2019-05-07T02:29:27.443Z,100402.89
2019-05-07T02:30:04.568Z,100402.89
2019-05-07T02:30:40.201Z,100399.29
2019-05-07T02:31:15.729Z,100406.05
2019-05-07T02:31:53.063Z,100406.05
2019-05-07T02:32:28.854Z,100404.64
2019-05-07T02:33:04.460Z,100395.89
2019-05-07T02:33:42.657Z,100405.41
2019-05-07T02:34:17.145Z,100406.55
2019-05-07T02:34:54.499Z,100394.52
2019-05-07T02:35:33.034Z,100394.52
2019-05-07T02:36:06.990Z,100399.49
2019-05-07T02:36:43.577Z,100393.84
2019-05-07T02:37:29.439Z,100393.84
2019-05-07T02:38:08.951Z,100396.30
2019-05-07T02:39:12.628Z,100398.20
2019-05-07T02:39:53.915Z,100393.81
2019-05-07T02:40:43.046Z,100400.45
2019-05-07T02:41:23.953Z,100400.45
2019-05-07T02:41:59.786Z,100396.86
2019-05-07T02:42:35.274Z,100396.86
2019-05-07T02:43:14.111Z,100397.80
2019-05-07T02:43:48.688Z,100394.37
2019-05-07T02:44:24.764Z,100402.48
2019-05-07T02:45:19.467Z,100402.48
2019-05-07T02:46:26.361Z,100395.45
2019-05-07T02:47:03.742Z,100400.70
2019-05-07T02:47:37.793Z,100401.22
2019-05-07T02:48:14.396Z,100398.61
2019-05-07T02:49:03.136Z,100398.61
2019-05-07T02:49:46.423Z,100395.19
2019-05-07T02:50:26.854Z,100395.37
2019-05-07T02:51:07.366Z,100393.47
2019-05-07T02:51:49.608Z,100396.59
2019-05-07T02:52:44.258Z,100393.48
2019-05-07T02:53:33.796Z,100398.98
2019-05-07T02:54:32.868Z,100398.98
2019-05-07T02:55:14.367Z,100392.94
2019-05-07T02:55:52.990Z,100392.94
2019-05-07T02:56:28.477Z,100397.70
2019-05-07T02:57:03.951Z,100402.55
2019-05-07T02:57:39.411Z,100399.56
2019-05-07T02:58:15.356Z,100399.56
2019-05-07T02:58:52.809Z,100400.71
2019-05-07T02:59:28.762Z,100402.50
2019-05-07T03:00:05.592Z,100405.17
2019-05-07T03:00:43.373Z,100404.83
2019-05-07T03:01:22.451Z,100398.47
2019-05-07T03:01:56.711Z,100405.09
2019-05-07T03:02:33.271Z,100401.20
2019-05-07T03:03:08.805Z,100406.36
2019-05-07T03:03:45.078Z,100405.56
2019-05-07T03:04:20.664Z,100411.53
2019-05-07T03:04:56.477Z,100404.25
2019-05-07T03:05:35.005Z,100409.38
2019-05-07T03:06:09.842Z,100401.27
2019-05-07T03:06:45.431Z,100405.51
2019-05-07T03:07:23.898Z,100402.28
2019-05-07T03:07:58.077Z,100407.55
2019-05-07T03:08:33.545Z,100407.55
2019-05-07T03:09:09.017Z,100405.59
2019-05-07T03:09:44.876Z,100400.97
2019-05-07T03:10:23.865Z,100411.20
2019-05-07T03:10:58.333Z,100405.73
2019-05-07T03:11:34.225Z,100408.69
2019-05-07T03:12:12.966Z,100407.40
2019-05-07T03:12:47.378Z,100416.00
2019-05-07T03:13:23.857Z,100412.98
2019-05-07T03:13:59.483Z,100406.98
2019-05-07T03:14:34.932Z,100414.70
2019-05-07T03:15:12.941Z,100414.70
2019-05-07T03:15:47.781Z,100414.30
2019-05-07T03:16:38.680Z,100412.80
2019-05-07T03:17:03.077Z,100416.81
2019-05-07T03:17:38.580Z,100413.09
2019-05-07T03:18:18.621Z,100417.36
2019-05-07T03:18:53.278Z,100408.08
2019-05-07T03:19:29.302Z,100417.56
2019-05-07T03:20:07.851Z,100417.56
2019-05-07T03:20:57.248Z,100413.42
2019-05-07T03:21:53.407Z,100409.17
2019-05-07T03:22:28.169Z,100409.17
2019-05-07T03:23:04.570Z,100414.30
2019-05-07T03:24:03.411Z,100412.05
2019-05-07T03:24:53.606Z,100412.05
2019-05-07T03:25:33.987Z,100409.09
2019-05-07T03:26:16.804Z,100409.56
2019-05-07T03:26:53.589Z,100409.56
2019-05-07T03:27:29.279Z,100413.03
2019-05-07T03:28:04.746Z,100413.86
2019-05-07T03:29:03.648Z,100417.12
2019-05-07T03:29:38.742Z,100415.42
2019-05-07T03:30:35.954Z,100407.42
2019-05-07T03:31:17.252Z,100408.79
2019-05-07T03:31:59.005Z,100405.91
2019-05-07T03:32:46.902Z,100408.08
2019-05-07T03:33:37.324Z,100408.47
2019-05-07T03:34:36.914Z,100405.45
2019-05-07T03:35:20.558Z,100406.05
2019-05-07T03:35:57.285Z,100407.55
2019-05-07T03:36:46.588Z,100405.17
2019-05-07T03:37:23.410Z,100412.14
2019-05-07T03:37:58.777Z,100407.26
2019-05-07T03:38:34.226Z,100408.19
2019-05-07T03:39:09.687Z,100407.15
2019-05-07T03:39:46.319Z,100407.15
2019-05-07T03:40:23.109Z,100405.31
2019-05-07T03:40:59.019Z,100402.42
2019-05-07T03:41:34.532Z,100402.42
2019-05-07T03:42:12.764Z,100413.67
2019-05-07T03:42:47.143Z,100413.67
2019-05-07T03:43:24.578Z,100412.62
2019-05-07T03:44:03.730Z,100409.39
2019-05-07T03:45:07.186Z,100405.75
2019-05-07T03:46:17.544Z,100416.91
2019-05-07T03:47:01.597Z,100406.48
2019-05-07T03:47:34.289Z,100410.04
2019-05-07T03:48:17.879Z,100408.50
2019-05-07T03:48:53.406Z,100404.80
2019-05-07T03:49:33.877Z,100411.30
2019-05-07T03:50:10.143Z,100411.30
2019-05-07T03:50:45.654Z,100414.28
2019-05-07T03:51:23.760Z,100411.01
2019-05-07T03:51:58.351Z,100414.97
2019-05-07T03:52:33.832Z,100416.95
2019-05-07T03:53:09.245Z,100413.13
2019-05-07T03:53:44.763Z,100415.36
2019-05-07T03:54:20.327Z,100406.98
2019-05-07T03:54:56.117Z,100406.98
2019-05-07T03:55:33.243Z,100412.08
2019-05-07T03:56:09.173Z,100412.08
2019-05-07T03:56:44.712Z,100409.51
2019-05-07T03:57:23.464Z,100412.44
2019-05-07T03:57:57.434Z,100409.67
2019-05-07T03:58:33.922Z,100409.67
2019-05-07T03:59:12.868Z,100413.55
2019-05-07T03:59:47.255Z,100413.55
2019-05-07T04:00:23.857Z,100412.69
2019-05-07T04:00:59.561Z,100407.95
2019-05-07T04:01:34.979Z,100412.14
2019-05-07T04:02:13.926Z,100409.14
2019-05-07T04:02:48.068Z,100407.13
2019-05-07T04:03:24.744Z,100406.73
2019-05-07T04:04:03.575Z,100405.70
2019-05-07T04:04:37.961Z,100405.70
2019-05-07T04:05:14.445Z,100409.02
2019-05-07T04:05:53.052Z,100409.02
2019-05-07T04:06:27.658Z,100407.30
2019-05-07T04:07:03.627Z,100407.30
2019-05-07T04:07:39.650Z,100410.52
2019-05-07T04:08:15.860Z,100409.72
2019-05-07T04:08:53.170Z,100409.72
2019-05-07T04:09:28.625Z,100408.52
2019-05-07T04:10:04.986Z,100405.14
2019-05-07T04:10:43.785Z,100411.56
2019-05-07T04:11:17.645Z,100410.16
2019-05-07T04:11:53.205Z,100409.66
2019-05-07T04:12:29.054Z,100409.94
2019-05-07T04:13:04.771Z,100404.07
2019-05-07T04:13:40.263Z,100407.95
2019-05-07T04:14:16.262Z,100407.08
2019-05-07T04:14:53.443Z,100402.42
2019-05-07T04:15:32.770Z,100411.83
2019-05-07T04:16:06.920Z,100411.83
2019-05-07T04:16:44.118Z,100409.87
2019-05-07T04:17:23.269Z,100409.87
2019-05-07T04:17:57.441Z,100415.96
2019-05-07T04:18:33.314Z,100409.07
2019-05-07T04:19:13.000Z,100408.22
2019-05-07T04:19:46.929Z,100415.45
2019-05-07T04:20:23.937Z,100419.36
2019-05-07T04:20:59.694Z,100418.89
2019-05-07T04:21:35.167Z,100413.27
2019-05-07T04:22:13.126Z,100413.27
2019-05-07T04:22:48.263Z,100415.69
2019-05-07T04:23:23.828Z,100414.09
2019-05-07T04:24:15.162Z,100415.03
2019-05-07T04:24:59.077Z,100415.03
2019-05-07T04:25:59.984Z,100417.73
2019-05-07T04:26:42.932Z,100415.55
2019-05-07T04:27:26.188Z,100415.86
2019-05-07T04:28:09.419Z,100422.24
2019-05-07T04:28:54.704Z,100420.42
2019-05-07T04:29:30.177Z,100422.97
2019-05-07T04:30:06.156Z,100430.25
2019-05-07T04:30:43.813Z,100423.45
2019-05-07T04:31:19.018Z,100427.72
2019-05-07T04:31:55.359Z,100423.23
2019-05-07T04:32:37.626Z,100416.58
2019-05-07T04:33:14.557Z,100422.65
2019-05-07T04:33:53.154Z,100421.29
2019-05-07T04:34:45.572Z,100417.75
2019-05-07T04:35:27.054Z,100421.13
2019-05-07T04:36:08.371Z,100421.13
2019-05-07T04:36:46.638Z,100422.09
2019-05-07T04:37:24.017Z,100424.26
2019-05-07T04:38:02.205Z,100421.83
2019-05-07T04:38:37.217Z,100418.00
2019-05-07T04:39:13.470Z,100418.00
2019-05-07T04:39:55.441Z,100412.38
2019-05-07T04:40:33.820Z,100417.72
2019-05-07T04:41:08.426Z,100417.23
2019-05-07T04:41:44.742Z,100413.66
2019-05-07T04:42:24.049Z,100413.25
2019-05-07T04:42:57.958Z,100411.79
2019-05-07T04:43:33.814Z,100411.79
2019-05-07T04:44:09.433Z,100418.09
2019-05-07T04:44:45.421Z,100411.53
2019-05-07T04:45:23.177Z,100411.53
2019-05-07T04:45:58.701Z,100407.91
2019-05-07T04:46:34.153Z,100415.16
2019-05-07T04:47:13.113Z,100415.27
2019-05-07T04:47:48.138Z,100420.05
2019-05-07T04:48:24.213Z,100414.13
2019-05-07T04:48:59.658Z,100419.35
2019-05-07T04:49:35.378Z,100416.10
2019-05-07T04:50:13.904Z,100407.66
2019-05-07T04:50:54.223Z,100417.10
2019-05-07T04:51:39.119Z,100417.22
2019-05-07T04:52:23.666Z,100419.36
2019-05-07T04:52:57.885Z,100408.14
2019-05-07T04:53:33.659Z,100410.67
2019-05-07T04:54:09.460Z,100415.84
2019-05-07T04:54:45.086Z,100417.49
2019-05-07T04:55:22.963Z,100412.69
2019-05-07T04:55:58.120Z,100407.67
2019-05-07T04:56:33.899Z,100420.66
2019-05-07T04:57:25.595Z,100420.66
2019-05-07T04:58:03.404Z,100416.87
2019-05-07T04:58:38.303Z,100416.87
2019-05-07T04:59:14.399Z,100414.45
2019-05-07T04:59:49.911Z,100423.31
2019-05-07T05:00:25.413Z,100424.20
2019-05-07T05:01:03.274Z,100416.75
2019-05-07T05:01:43.599Z,100425.14
2019-05-07T05:02:23.124Z,100413.05
2019-05-07T05:03:26.640Z,100420.95
2019-05-07T05:04:21.156Z,100420.95
2019-05-07T05:04:39.223Z,100421.58
2019-05-07T05:05:15.722Z,100414.62
2019-05-07T05:05:53.234Z,100420.48
2019-05-07T05:06:29.340Z,100420.48
2019-05-07T05:07:04.801Z,100423.33
2019-05-07T05:07:42.870Z,100420.87
2019-05-07T05:08:18.274Z,100420.87
2019-05-07T05:08:56.244Z,100418.09
2019-05-07T05:09:32.885Z,100415.65
2019-05-07T05:10:08.947Z,100422.08
2019-05-07T05:10:44.704Z,100420.48
2019-05-07T05:11:23.042Z,100412.28
2019-05-07T05:11:57.931Z,100414.34
2019-05-07T05:12:33.379Z,100414.34
2019-05-07T05:13:08.861Z,100413.22
2019-05-07T05:13:45.061Z,100414.80
2019-05-07T05:14:22.700Z,100412.97
2019-05-07T05:14:57.929Z,100416.63
2019-05-07T05:15:33.800Z,100416.63
2019-05-07T05:16:25.627Z,100406.35
2019-05-07T05:17:02.070Z,100409.84
2019-05-07T05:17:48.019Z,100411.78
2019-05-07T05:18:15.417Z,100408.47
2019-05-07T05:18:51.714Z,100408.47
2019-05-07T05:19:27.683Z,100417.26
2019-05-07T05:20:03.746Z,100416.56
2019-05-07T05:20:56.805Z,100418.66
2019-05-07T05:21:44.495Z,100412.98
2019-05-07T05:22:39.416Z,100412.98
2019-05-07T05:23:46.429Z,100410.41
2019-05-07T05:24:27.149Z,100410.41
2019-05-07T05:25:17.969Z,100412.12
2019-05-07T05:25:53.858Z,100416.08
2019-05-07T05:26:29.307Z,100417.20
2019-05-07T05:27:04.797Z,100416.02
2019-05-07T05:27:42.842Z,100417.01
2019-05-07T05:28:17.893Z,100417.01
2019-05-07T05:28:53.385Z,100419.77
2019-05-07T05:29:28.862Z,100415.91
2019-05-07T05:30:04.988Z,100417.20
2019-05-07T05:30:43.121Z,100405.45
2019-05-07T05:31:19.001Z,100405.45
2019-05-07T05:31:54.454Z,100417.61
2019-05-07T05:32:32.432Z,100420.55
2019-05-07T05:33:07.679Z,100421.50
2019-05-07T05:33:43.692Z,100415.42
2019-05-07T05:34:22.100Z,100417.75
2019-05-07T05:34:58.673Z,100417.75
2019-05-07T05:35:34.489Z,100418.41
2019-05-07T05:36:12.440Z,100417.69
2019-05-07T05:36:47.295Z,100421.06
2019-05-07T05:37:23.313Z,100420.29
2019-05-07T05:37:59.094Z,100423.83
2019-05-07T05:38:34.534Z,100421.20
2019-05-07T05:39:10.007Z,100422.63
2019-05-07T05:39:46.576Z,100428.40
2019-05-07T05:40:22.860Z,100418.56
2019-05-07T05:40:58.653Z,100418.56
2019-05-07T05:41:37.724Z,100419.77
2019-05-07T05:42:36.526Z,100420.04
2019-05-07T05:43:19.452Z,100420.04
2019-05-07T05:44:07.622Z,100423.25
2019-05-07T05:44:43.327Z,100419.57
2019-05-07T05:45:35.889Z,100417.17
2019-05-07T05:46:12.178Z,100413.59
2019-05-07T05:46:47.932Z,100418.22
2019-05-07T05:47:23.796Z,100418.52
2019-05-07T05:48:04.548Z,100423.63
2019-05-07T05:48:37.102Z,100423.08
2019-05-07T05:49:13.669Z,100423.08
2019-05-07T05:49:49.591Z,100418.15
2019-05-07T05:50:26.937Z,100421.29
2019-05-07T05:51:11.782Z,100421.29
2019-05-07T05:51:59.323Z,100419.71
2019-05-07T05:52:45.569Z,100420.09
2019-05-07T05:53:43.502Z,100410.81
2019-05-07T05:54:38.042Z,100415.44
2019-05-07T05:55:16.951Z,100422.61
2019-05-07T05:55:53.376Z,100418.80
2019-05-07T05:56:37.664Z,100425.00
2019-05-07T05:57:23.018Z,100425.00
2019-05-07T05:58:12.761Z,100421.51
2019-05-07T05:59:05.355Z,100421.51
2019-05-07T06:00:05.732Z,100415.85
2019-05-07T06:01:09.440Z,100415.85
2019-05-07T06:01:58.256Z,100423.90
2019-05-07T06:02:58.476Z,100422.80
2019-05-07T06:03:49.398Z,100422.80
2019-05-07T06:04:33.572Z,100414.78
2019-05-07T06:05:34.321Z,100419.63
2019-05-07T06:06:33.702Z,100419.63
2019-05-07T06:07:15.330Z,100417.36
2019-05-07T06:07:59.950Z,100417.36
2019-05-07T06:08:43.616Z,100416.30
2019-05-07T06:09:29.957Z,100417.05
2019-05-07T06:10:17.529Z,100417.05
2019-05-07T06:11:14.575Z,100420.59
2019-05-07T06:12:12.796Z,100418.57
2019-05-07T06:13:01.760Z,100413.70
2019-05-07T06:13:52.649Z,100418.92
2019-05-07T06:14:46.753Z,100418.92
2019-05-07T06:15:44.302Z,100402.28
2019-05-07T06:16:23.282Z,100411.05
2019-05-07T06:17:16.495Z,100407.67
2019-05-07T06:18:29.468Z,100407.67
2019-05-07T06:19:33.335Z,100408.44
2019-05-07T06:20:37.236Z,100408.44
2019-05-07T06:21:24.098Z,100413.59
2019-05-07T06:22:12.822Z,100411.02
2019-05-07T06:23:07.365Z,100411.02
2019-05-07T06:23:46.682Z,100408.73
2019-05-07T06:24:32.813Z,100411.80
2019-05-07T06:25:15.675Z,100411.44
2019-05-07T06:25:52.336Z,100402.61
2019-05-07T06:26:28.187Z,100410.09
2019-05-07T06:27:03.775Z,100412.94
2019-05-07T06:27:39.253Z,100410.63
2019-05-07T06:28:14.819Z,100420.03
2019-05-07T06:28:51.909Z,100420.03
2019-05-07T06:29:27.487Z,100416.32
2019-05-07T06:30:05.026Z,100413.70
2019-05-07T06:30:41.846Z,100409.48
2019-05-07T06:31:17.567Z,100413.93
2019-05-07T06:32:03.260Z,100410.02
2019-05-07T06:32:39.084Z,100415.45
2019-05-07T06:33:14.709Z,100415.45
2019-05-07T06:33:52.275Z,100419.50
2019-05-07T06:34:28.131Z,100421.20
2019-05-07T06:35:03.585Z,100414.34
2019-05-07T06:35:39.381Z,100417.63
2019-05-07T06:36:15.123Z,100421.13
2019-05-07T06:36:52.676Z,100423.39
2019-05-07T06:37:28.314Z,100424.47
2019-05-07T06:38:04.879Z,100424.47
2019-05-07T06:38:49.599Z,100418.91
2019-05-07T06:39:28.138Z,100418.25
2019-05-07T06:40:29.323Z,100422.84
2019-05-07T06:41:25.036Z,100419.50
2019-05-07T06:42:22.251Z,100412.83
2019-05-07T06:43:04.241Z,100412.94
2019-05-07T06:43:44.367Z,100412.94
2019-05-07T06:44:22.518Z,100411.94
2019-05-07T06:45:05.499Z,100414.02
2019-05-07T06:45:44.143Z,100411.61
2019-05-07T06:46:19.649Z,100411.61
2019-05-07T06:46:55.173Z,100409.77
2019-05-07T06:47:31.901Z,100409.77
2019-05-07T06:48:07.789Z,100409.84
2019-05-07T06:48:46.119Z,100408.77
2019-05-07T06:49:22.289Z,100415.54
2019-05-07T06:49:58.338Z,100411.55
2019-05-07T06:50:34.059Z,100414.22
2019-05-07T06:51:09.542Z,100414.22
2019-05-07T06:51:47.679Z,100422.69
2019-05-07T06:52:22.522Z,100416.73
2019-05-07T06:52:57.971Z,100410.94
2019-05-07T06:53:33.854Z,100422.42
2019-05-07T06:54:09.694Z,100415.41
2019-05-07T06:54:45.309Z,100416.53
2019-05-07T06:55:22.877Z,100414.23
2019-05-07T06:56:00.068Z,100419.11
2019-05-07T06:56:35.548Z,100420.66
2019-05-07T06:57:13.048Z,100416.36
2019-05-07T06:57:48.233Z,100419.11
2019-05-07T06:58:25.619Z,100419.11
2019-05-07T06:59:06.388Z,100413.22
2019-05-07T06:59:45.952Z,100418.66
2019-05-07T07:00:42.198Z,100417.37
2019-05-07T07:01:35.929Z,100418.11
2019-05-07T07:02:37.241Z,100416.28
2019-05-07T07:03:27.805Z,100413.81
2019-05-07T07:04:13.876Z,100418.34
2019-05-07T07:04:56.903Z,100419.36
2019-05-07T07:05:51.846Z,100418.23
2019-05-07T07:06:32.079Z,100418.90
2019-05-07T07:07:26.089Z,100414.16
2019-05-07T07:07:56.724Z,100415.04
2019-05-07T07:08:37.038Z,100420.08
2019-05-07T07:09:19.651Z,100415.03
2019-05-07T07:10:27.084Z,100411.49
2019-05-07T07:11:22.434Z,100417.86
2019-05-07T07:12:02.094Z,100417.86
2019-05-07T07:12:37.272Z,100416.45
2019-05-07T07:13:13.042Z,100412.84
2019-05-07T07:13:48.584Z,100407.03
2019-05-07T07:14:24.455Z,100409.94
2019-05-07T07:15:02.568Z,100411.34
2019-05-07T07:15:37.400Z,100410.30
2019-05-07T07:16:13.471Z,100407.32
2019-05-07T07:16:49.347Z,100416.73
2019-05-07T07:17:25.050Z,100418.70
2019-05-07T07:18:02.986Z,100415.77
2019-05-07T07:18:51.363Z,100416.50
2019-05-07T07:19:15.399Z,100412.94
2019-05-07T07:19:52.333Z,100413.18
2019-05-07T07:20:27.941Z,100405.58
2019-05-07T07:21:04.411Z,100405.78
2019-05-07T07:21:42.040Z,100420.89
2019-05-07T07:22:17.828Z,100411.20
2019-05-07T07:22:53.339Z,100409.75
2019-05-07T07:23:28.805Z,100407.41
2019-05-07T07:24:04.393Z,100404.58
2019-05-07T07:24:42.280Z,100409.54
2019-05-07T07:25:17.586Z,100406.36
2019-05-07T07:25:53.048Z,100411.05
2019-05-07T07:26:28.508Z,100411.13
2019-05-07T07:27:04.002Z,100413.81
2019-05-07T07:27:39.437Z,100407.23
2019-05-07T07:28:15.369Z,100409.56
2019-05-07T07:28:52.507Z,100408.48
2019-05-07T07:29:32.469Z,100402.52
2019-05-07T07:30:21.872Z,100399.92